New Canaan, Connecticut
Current Conditions -  °F | °C
As of 3:56 PM on Saturday 25 Oct 2014 (Local Time) from KHPN Reporting Station
Clear Clear  
Wind Chill: 65°   Ceiling: Unl
Heat Index: 65°   Visibility: 10mi
Dew Point: 41°   Wind: 8mph
Humidity: 42%   Direction: 260°W
Pressure: 29.67"   Gusts: NA
Location:  41.15°N, 73.5°W
Report Text: KHPN 251956Z 26007KT 10SM CLR 18/05 A2967 RMK AO2 SLP045 T01830050
Loading
Personal Weather Stations






























Interactive Weather Map
Tropical Storm Tracking
New forecast layout! Learn more

10-Day Weather Forecast

Advertisements
Track Severe Weather on mobile